createdAt,value
2022-09-11T00:01:14.388Z,17.70
2022-09-11T00:03:42.906Z,17.70
2022-09-11T00:06:27.496Z,17.70
2022-09-11T00:09:00.267Z,17.70
2022-09-11T00:11:33.002Z,17.70
2022-09-11T00:13:59.830Z,17.70
2022-09-11T00:16:31.359Z,17.70
2022-09-11T00:19:00.676Z,17.70
2022-09-11T00:21:28.173Z,17.70
2022-09-11T00:23:55.123Z,17.70
2022-09-11T00:26:22.112Z,17.70
2022-09-11T00:28:50.589Z,17.70
2022-09-11T00:31:19.584Z,17.70
2022-09-11T00:33:46.620Z,17.70
2022-09-11T00:36:18.997Z,17.70
2022-09-11T00:38:46.303Z,17.70
2022-09-11T00:41:28.162Z,17.70
2022-09-11T00:44:18.677Z,17.70
2022-09-11T00:46:58.238Z,17.70
2022-09-11T00:49:40.485Z,17.70
2022-09-11T00:52:18.197Z,17.70
2022-09-11T00:54:49.935Z,17.70
2022-09-11T00:57:20.828Z,17.70
2022-09-11T00:59:49.282Z,17.70
2022-09-11T01:02:19.275Z,17.70
2022-09-11T01:04:45.977Z,17.70
2022-09-11T01:07:15.514Z,17.70
2022-09-11T01:09:42.924Z,17.70
2022-09-11T01:12:18.867Z,17.70
2022-09-11T01:15:03.738Z,17.70
2022-09-11T01:17:39.277Z,17.70
2022-09-11T01:20:36.959Z,17.70
2022-09-11T01:23:12.229Z,17.80
2022-09-11T01:26:09.210Z,17.80
2022-09-11T01:28:45.474Z,17.70
2022-09-11T01:31:16.266Z,17.80
2022-09-11T01:34:06.593Z,17.80
2022-09-11T01:36:39.073Z,17.70
2022-09-11T01:39:05.909Z,17.70
2022-09-11T01:41:54.357Z,17.70
2022-09-11T01:44:38.462Z,17.70
2022-09-11T01:47:10.580Z,17.70
2022-09-11T01:50:01.520Z,17.70
2022-09-11T01:52:34.128Z,17.70
2022-09-11T01:55:24.056Z,17.70
2022-09-11T01:58:03.120Z,17.70
2022-09-11T02:00:35.045Z,17.70
2022-09-11T02:03:06.238Z,17.80
2022-09-11T02:05:49.095Z,17.80
2022-09-11T02:08:24.418Z,17.70
2022-09-11T02:10:56.271Z,17.80
2022-09-11T02:13:30.895Z,17.80
2022-09-11T02:16:12.012Z,17.80
2022-09-11T02:18:38.641Z,17.80
2022-09-11T02:21:05.338Z,17.80
2022-09-11T02:23:32.308Z,17.80
2022-09-11T02:25:59.025Z,17.80
2022-09-11T02:28:25.851Z,17.80
2022-09-11T02:30:53.136Z,17.70
2022-09-11T02:33:30.917Z,17.80
2022-09-11T02:36:22.362Z,17.80
2022-09-11T02:39:16.619Z,17.80
2022-09-11T02:42:02.485Z,17.80
2022-09-11T02:44:38.715Z,17.80
2022-09-11T02:47:20.203Z,17.80
2022-09-11T02:49:57.689Z,17.80
2022-09-11T02:52:42.515Z,17.80
2022-09-11T02:55:38.748Z,17.80
2022-09-11T02:58:44.266Z,17.80
2022-09-11T03:01:11.836Z,17.80
2022-09-11T03:03:40.482Z,17.80
2022-09-11T03:06:13.647Z,17.80
2022-09-11T03:08:41.031Z,17.80
2022-09-11T03:11:10.869Z,17.80
2022-09-11T03:13:38.174Z,17.80
2022-09-11T03:16:05.538Z,17.80
2022-09-11T03:18:33.197Z,17.80
2022-09-11T03:21:01.133Z,17.80
2022-09-11T03:23:28.264Z,17.80
2022-09-11T03:25:55.557Z,17.80
2022-09-11T03:28:23.262Z,17.80
2022-09-11T03:30:50.579Z,17.80
2022-09-11T03:33:17.279Z,17.80
2022-09-11T03:35:44.652Z,17.80
2022-09-11T03:38:12.140Z,17.80
2022-09-11T03:40:39.217Z,17.80
2022-09-11T03:43:05.860Z,17.80
2022-09-11T03:45:32.560Z,17.80
2022-09-11T03:47:59.285Z,17.90
2022-09-11T03:50:26.568Z,17.90
2022-09-11T03:52:53.232Z,17.90
2022-09-11T03:55:19.956Z,17.90
2022-09-11T03:57:46.620Z,17.80
2022-09-11T04:00:13.430Z,17.90
2022-09-11T04:02:40.079Z,17.90
2022-09-11T04:05:07.731Z,17.80
2022-09-11T04:07:34.806Z,17.80
2022-09-11T04:10:01.458Z,17.80
2022-09-11T04:12:29.011Z,17.80
2022-09-11T04:14:57.019Z,17.80
2022-09-11T04:17:24.429Z,17.80
2022-09-11T04:19:51.145Z,17.80
2022-09-11T04:22:17.809Z,17.80
2022-09-11T04:24:44.542Z,17.90
2022-09-11T04:27:12.452Z,17.90
2022-09-11T04:29:39.064Z,17.90
2022-09-11T04:32:05.824Z,17.90
2022-09-11T04:34:32.508Z,17.90
2022-09-11T04:36:59.183Z,17.90
2022-09-11T04:39:25.899Z,17.80
2022-09-11T04:41:52.616Z,17.90
2022-09-11T04:44:20.726Z,17.90
2022-09-11T04:46:47.739Z,17.90
2022-09-11T04:49:14.794Z,17.90
2022-09-11T04:51:41.751Z,17.90
2022-09-11T04:54:12.734Z,17.90
2022-09-11T04:56:39.462Z,17.80
2022-09-11T04:59:13.236Z,17.80
2022-09-11T05:01:40.387Z,17.80
2022-09-11T05:04:08.479Z,17.80
2022-09-11T05:06:37.888Z,17.80
2022-09-11T05:09:06.920Z,17.80
2022-09-11T05:11:34.234Z,17.90
2022-09-11T05:14:00.989Z,17.90
2022-09-11T05:16:29.917Z,17.80
2022-09-11T05:18:57.155Z,17.80
2022-09-11T05:21:25.509Z,17.80
2022-09-11T05:23:54.586Z,17.90
2022-09-11T05:26:23.557Z,17.90
2022-09-11T05:29:04.849Z,17.90
2022-09-11T05:31:34.194Z,17.90
2022-09-11T05:34:01.169Z,17.90
2022-09-11T05:36:28.479Z,17.90
2022-09-11T05:38:55.498Z,17.90
2022-09-11T05:41:22.392Z,17.90
2022-09-11T05:43:49.338Z,17.90
2022-09-11T05:46:17.865Z,17.90
2022-09-11T05:48:45.091Z,17.90
2022-09-11T05:51:20.303Z,17.90
2022-09-11T05:53:47.947Z,17.90
2022-09-11T05:56:17.080Z,17.90
2022-09-11T05:58:46.083Z,17.90
2022-09-11T06:01:18.759Z,17.90
2022-09-11T06:03:49.388Z,17.90
2022-09-11T06:06:18.531Z,17.90
2022-09-11T06:08:47.330Z,18.00
2022-09-11T06:11:17.599Z,18.00
2022-09-11T06:13:46.502Z,18.00
2022-09-11T06:16:21.130Z,18.00
2022-09-11T06:18:49.538Z,18.00
2022-09-11T06:21:19.860Z,18.00
2022-09-11T06:23:48.063Z,18.00
2022-09-11T06:26:17.810Z,18.00
2022-09-11T06:28:44.594Z,18.00
2022-09-11T06:31:17.089Z,18.00
2022-09-11T06:33:44.797Z,18.00
2022-09-11T06:36:14.414Z,18.00
2022-09-11T06:38:41.574Z,18.00
2022-09-11T06:41:11.799Z,18.00
2022-09-11T06:43:38.813Z,18.00
2022-09-11T06:46:07.605Z,18.00
2022-09-11T06:48:34.339Z,18.00
2022-09-11T06:51:05.521Z,18.00
2022-09-11T06:53:32.233Z,18.00
2022-09-11T06:56:04.059Z,18.00
2022-09-11T06:58:31.525Z,18.00
2022-09-11T07:01:12.590Z,18.10
2022-09-11T07:03:46.244Z,18.00
2022-09-11T07:06:15.062Z,18.00
2022-09-11T07:08:41.713Z,18.10
2022-09-11T07:11:11.331Z,18.00
2022-09-11T07:13:39.227Z,18.00
2022-09-11T07:16:08.918Z,18.10
2022-09-11T07:18:37.246Z,18.10
2022-09-11T07:21:12.156Z,18.10
2022-09-11T07:23:40.458Z,18.10
2022-09-11T07:26:10.819Z,18.10
2022-09-11T07:28:38.499Z,18.10
2022-09-11T07:31:05.312Z,18.20
2022-09-11T07:33:32.103Z,18.10
2022-09-11T07:35:58.853Z,18.20
2022-09-11T07:38:25.548Z,18.10
2022-09-11T07:40:54.542Z,18.20
2022-09-11T07:43:21.396Z,18.20
2022-09-11T07:45:50.554Z,18.20
2022-09-11T07:48:17.408Z,18.20
2022-09-11T07:50:54.380Z,18.20
2022-09-11T07:53:21.016Z,18.20
2022-09-11T07:55:47.671Z,18.20
2022-09-11T07:58:14.367Z,18.20
2022-09-11T08:00:40.986Z,18.20
2022-09-11T08:03:07.759Z,18.20
2022-09-11T08:05:34.423Z,18.20
2022-09-11T08:08:01.189Z,18.30
2022-09-11T08:10:28.338Z,18.30
2022-09-11T08:12:59.390Z,18.30
2022-09-11T08:15:27.129Z,18.40
2022-09-11T08:17:54.322Z,18.40
2022-09-11T08:20:21.643Z,18.40
2022-09-11T08:22:48.309Z,18.50
2022-09-11T08:25:15.155Z,18.50
2022-09-11T08:27:41.849Z,18.60
2022-09-11T08:30:09.485Z,18.60
2022-09-11T08:32:36.198Z,18.60
2022-09-11T08:35:02.855Z,18.70
2022-09-11T08:37:29.596Z,18.80
2022-09-11T08:39:56.986Z,18.90
2022-09-11T08:42:27.073Z,19.00
2022-09-11T08:44:58.795Z,19.10
2022-09-11T08:47:28.925Z,19.20
2022-09-11T08:50:03.659Z,19.20
2022-09-11T08:52:32.934Z,19.10
2022-09-11T08:54:59.792Z,19.10
2022-09-11T08:58:01.141Z,19.10
2022-09-11T09:00:42.036Z,19.10
2022-09-11T09:03:30.423Z,19.00
2022-09-11T09:06:05.074Z,19.00
2022-09-11T09:09:00.426Z,19.00
2022-09-11T09:11:33.033Z,19.00
2022-09-11T09:14:11.859Z,19.20
2022-09-11T09:16:47.360Z,19.30
2022-09-11T09:19:17.680Z,19.50
2022-09-11T09:22:07.814Z,19.60
2022-09-11T09:24:42.537Z,19.70
2022-09-11T09:27:24.804Z,19.80
2022-09-11T09:29:55.799Z,20.00
2022-09-11T09:32:31.230Z,20.20
2022-09-11T09:35:03.995Z,20.30
2022-09-11T09:37:31.019Z,20.30
2022-09-11T09:40:00.512Z,20.30
2022-09-11T09:43:08.604Z,20.40
2022-09-11T09:45:42.448Z,20.50
2022-09-11T09:48:11.720Z,20.60
2022-09-11T09:50:41.483Z,20.70
2022-09-11T09:53:32.459Z,20.80
2022-09-11T09:56:00.941Z,20.80
2022-09-11T09:58:34.390Z,20.80
2022-09-11T10:01:01.227Z,20.90
2022-09-11T10:03:28.038Z,21.00
2022-09-11T10:05:56.262Z,21.10
2022-09-11T10:08:32.005Z,21.10
2022-09-11T10:11:04.397Z,21.20
2022-09-11T10:13:40.038Z,21.20
2022-09-11T10:16:20.844Z,21.20
2022-09-11T10:18:47.653Z,21.30
2022-09-11T10:21:22.854Z,21.40
2022-09-11T10:23:54.752Z,21.40
2022-09-11T10:26:46.214Z,21.40
2022-09-11T10:29:30.066Z,21.40
2022-09-11T10:31:59.342Z,21.30
2022-09-11T10:34:27.902Z,21.20
2022-09-11T10:37:15.249Z,21.20
2022-09-11T10:39:46.011Z,21.20
2022-09-11T10:42:30.302Z,21.10
2022-09-11T10:45:10.339Z,21.10
2022-09-11T10:47:37.545Z,21.10
2022-09-11T10:50:20.239Z,21.10
2022-09-11T10:52:57.914Z,21.20
2022-09-11T10:55:29.566Z,21.20
2022-09-11T10:58:05.359Z,21.30
2022-09-11T11:00:32.679Z,21.50
2022-09-11T11:03:04.165Z,21.70
2022-09-11T11:05:36.874Z,22.00
2022-09-11T11:08:15.738Z,22.00
2022-09-11T11:10:59.090Z,22.20
2022-09-11T11:13:40.885Z,22.40
2022-09-11T11:16:45.390Z,22.70
2022-09-11T11:19:27.633Z,23.00
2022-09-11T11:22:16.468Z,23.20
2022-09-11T11:24:57.928Z,23.30
2022-09-11T11:27:57.954Z,23.40
2022-09-11T11:30:33.291Z,23.50
2022-09-11T11:33:14.786Z,23.70
2022-09-11T11:36:00.156Z,23.90
2022-09-11T11:38:39.391Z,23.90
2022-09-11T11:41:23.703Z,23.60
2022-09-11T11:43:53.159Z,23.40
2022-09-11T11:46:25.398Z,23.40
2022-09-11T11:49:03.041Z,23.50
2022-09-11T11:51:47.509Z,23.80
2022-09-11T11:54:20.337Z,24.00
2022-09-11T11:56:51.997Z,24.20
2022-09-11T11:59:36.849Z,24.40
2022-09-11T12:02:16.141Z,24.70
2022-09-11T12:05:00.097Z,24.90
2022-09-11T12:07:32.769Z,24.90
2022-09-11T12:10:05.046Z,24.90
2022-09-11T12:12:45.371Z,24.90
2022-09-11T12:15:21.394Z,24.80
2022-09-11T12:18:00.296Z,24.60
2022-09-11T12:20:40.766Z,24.60
2022-09-11T12:23:29.938Z,24.50
2022-09-11T12:26:08.902Z,24.50
2022-09-11T12:28:35.828Z,24.40
2022-09-11T12:31:08.011Z,24.30
2022-09-11T12:33:44.242Z,24.20
2022-09-11T12:36:24.582Z,24.20
2022-09-11T12:39:01.957Z,24.30
2022-09-11T12:41:34.569Z,24.30
2022-09-11T12:44:03.423Z,24.20
2022-09-11T12:46:30.190Z,24.20
2022-09-11T12:49:21.587Z,24.10
2022-09-11T12:51:56.203Z,24.00
2022-09-11T12:54:46.429Z,24.00
2022-09-11T12:57:22.012Z,23.90
2022-09-11T12:59:55.937Z,23.70
2022-09-11T13:02:42.918Z,23.60
2022-09-11T13:05:39.910Z,23.60
2022-09-11T13:08:19.030Z,23.40
2022-09-11T13:10:46.974Z,23.30
2022-09-11T13:13:35.591Z,23.30
2022-09-11T13:16:19.320Z,23.20
2022-09-11T13:18:46.222Z,23.10
2022-09-11T13:21:17.302Z,23.10
2022-09-11T13:23:46.745Z,23.00
2022-09-11T13:26:21.767Z,22.90
2022-09-11T13:28:52.492Z,22.90
2022-09-11T13:31:26.501Z,22.90
2022-09-11T13:33:53.480Z,22.80
2022-09-11T13:36:24.625Z,22.70
2022-09-11T13:38:57.133Z,22.70
2022-09-11T13:41:29.784Z,22.70
2022-09-11T13:44:01.658Z,22.70
2022-09-11T13:46:32.374Z,22.70
2022-09-11T13:49:06.498Z,22.80
2022-09-11T13:51:34.847Z,22.80
2022-09-11T13:54:15.239Z,22.90
2022-09-11T13:57:03.044Z,22.90
2022-09-11T13:59:46.278Z,22.90
2022-09-11T14:02:34.807Z,22.90
2022-09-11T14:05:07.610Z,22.90
2022-09-11T14:07:42.898Z,22.90
2022-09-11T14:10:22.570Z,22.80
2022-09-11T14:13:03.104Z,22.80
2022-09-11T14:15:41.061Z,22.80
2022-09-11T14:18:23.909Z,22.90
2022-09-11T14:20:51.106Z,23.10
2022-09-11T14:23:24.162Z,23.40
2022-09-11T14:26:24.564Z,23.60
2022-09-11T14:28:59.762Z,23.90
2022-09-11T14:31:45.239Z,24.10
2022-09-11T14:34:17.885Z,24.30
2022-09-11T14:36:55.518Z,24.40
2022-09-11T14:39:29.802Z,24.50
2022-09-11T14:41:58.025Z,24.60
2022-09-11T14:44:26.264Z,24.60
2022-09-11T14:46:54.938Z,24.70
2022-09-11T14:49:23.244Z,24.60
2022-09-11T14:52:00.367Z,24.70
2022-09-11T14:54:31.970Z,24.70
2022-09-11T14:57:00.405Z,24.70
2022-09-11T14:59:30.191Z,24.60
2022-09-11T15:01:58.735Z,24.50
2022-09-11T15:04:25.632Z,24.40
2022-09-11T15:06:55.361Z,24.50
2022-09-11T15:09:23.428Z,24.50
2022-09-11T15:11:52.194Z,24.50
2022-09-11T15:14:38.570Z,24.50
2022-09-11T15:17:14.898Z,24.50
2022-09-11T15:19:41.619Z,24.50
2022-09-11T15:22:11.572Z,24.30
2022-09-11T15:24:38.230Z,24.20
2022-09-11T15:27:04.954Z,24.10
2022-09-11T15:29:32.176Z,24.00
2022-09-11T15:32:01.044Z,23.90
2022-09-11T15:34:31.665Z,23.80
2022-09-11T15:36:58.637Z,23.70
2022-09-11T15:39:25.985Z,23.50
2022-09-11T15:41:54.099Z,23.50
2022-09-11T15:44:22.950Z,23.40
2022-09-11T15:46:51.170Z,23.30
2022-09-11T15:49:22.888Z,23.30
2022-09-11T15:51:51.342Z,23.30
2022-09-11T15:54:19.154Z,23.30
2022-09-11T15:56:46.744Z,23.30
2022-09-11T15:59:15.311Z,23.20
2022-09-11T16:01:43.294Z,23.20
2022-09-11T16:04:12.638Z,23.20
2022-09-11T16:06:42.355Z,23.20
2022-09-11T16:09:24.169Z,23.10
2022-09-11T16:11:51.603Z,23.10
2022-09-11T16:14:19.815Z,23.10
2022-09-11T16:16:49.496Z,23.00
2022-09-11T16:19:17.531Z,23.00
2022-09-11T16:21:44.775Z,23.00
2022-09-11T16:24:12.197Z,22.90
2022-09-11T16:26:39.744Z,22.90
2022-09-11T16:29:12.369Z,22.90
2022-09-11T16:31:39.778Z,22.90
2022-09-11T16:34:07.248Z,22.90
2022-09-11T16:36:41.785Z,22.80
2022-09-11T16:39:11.510Z,22.80
2022-09-11T16:41:38.853Z,22.80
2022-09-11T16:44:07.773Z,22.80
2022-09-11T16:46:35.095Z,22.80
2022-09-11T16:49:02.311Z,22.70
2022-09-11T16:51:29.857Z,22.70
2022-09-11T16:53:57.078Z,22.70
2022-09-11T16:56:24.627Z,22.60
2022-09-11T16:58:51.983Z,22.60
2022-09-11T17:01:24.014Z,22.60
2022-09-11T17:03:52.628Z,22.60
2022-09-11T17:06:20.786Z,22.60
2022-09-11T17:08:50.654Z,22.60
2022-09-11T17:11:20.808Z,22.50
2022-09-11T17:13:49.091Z,22.50
2022-09-11T17:16:23.987Z,22.50
2022-09-11T17:18:56.472Z,22.40
2022-09-11T17:21:24.464Z,22.40
2022-09-11T17:23:54.009Z,22.40
2022-09-11T17:26:21.624Z,22.30
2022-09-11T17:28:49.828Z,22.30
2022-09-11T17:31:19.311Z,22.30
2022-09-11T17:33:47.674Z,22.30
2022-09-11T17:36:17.204Z,22.20
2022-09-11T17:38:46.030Z,22.20
2022-09-11T17:41:13.028Z,22.10
2022-09-11T17:43:40.623Z,22.10
2022-09-11T17:46:15.062Z,22.10
2022-09-11T17:48:43.622Z,22.00
2022-09-11T17:51:14.262Z,22.00
2022-09-11T17:53:47.193Z,21.90
2022-09-11T17:56:16.654Z,21.90
2022-09-11T17:58:45.083Z,21.80
2022-09-11T18:01:16.835Z,21.80
2022-09-11T18:03:49.231Z,21.70
2022-09-11T18:06:34.530Z,21.70
2022-09-11T18:09:06.031Z,21.70
2022-09-11T18:11:32.691Z,21.60
2022-09-11T18:14:00.298Z,21.60
2022-09-11T18:16:27.524Z,21.50
2022-09-11T18:18:55.583Z,21.50
2022-09-11T18:21:22.494Z,21.50
2022-09-11T18:23:49.834Z,21.50
2022-09-11T18:26:23.597Z,21.50
2022-09-11T18:28:50.745Z,21.50
2022-09-11T18:31:17.708Z,21.40
2022-09-11T18:33:44.757Z,21.40
2022-09-11T18:36:13.429Z,21.40
2022-09-11T18:38:40.477Z,21.30
2022-09-11T18:41:07.255Z,21.30
2022-09-11T18:43:34.112Z,21.20
2022-09-11T18:46:03.162Z,21.20
2022-09-11T18:48:29.959Z,21.20
2022-09-11T18:51:00.035Z,21.20
2022-09-11T18:53:27.060Z,21.10
2022-09-11T18:56:03.772Z,21.10
2022-09-11T18:58:36.034Z,21.10
2022-09-11T19:01:11.708Z,21.00
2022-09-11T19:03:42.228Z,20.90
2022-09-11T19:06:20.141Z,20.90
2022-09-11T19:08:48.231Z,20.90
2022-09-11T19:11:17.929Z,20.90
2022-09-11T19:13:45.832Z,20.80
2022-09-11T19:16:14.556Z,20.80
2022-09-11T19:18:42.063Z,20.70
2022-09-11T19:21:15.010Z,20.70
2022-09-11T19:23:44.819Z,20.70
2022-09-11T19:26:17.912Z,20.60
2022-09-11T19:28:45.985Z,20.60
2022-09-11T19:31:14.869Z,20.50
2022-09-11T19:33:42.895Z,20.50
2022-09-11T19:36:15.171Z,20.50
2022-09-11T19:38:44.267Z,20.50
2022-09-11T19:41:13.916Z,20.40
2022-09-11T19:43:42.184Z,20.40
2022-09-11T19:46:15.105Z,20.40
2022-09-11T19:48:43.346Z,20.30
2022-09-11T19:51:11.497Z,20.30
2022-09-11T19:53:39.233Z,20.30
2022-09-11T19:56:06.742Z,20.20
2022-09-11T19:58:34.326Z,20.20
2022-09-11T20:01:09.266Z,20.20
2022-09-11T20:03:41.797Z,20.20
2022-09-11T20:06:10.277Z,20.10
2022-09-11T20:08:38.138Z,20.10
2022-09-11T20:11:07.352Z,20.10
2022-09-11T20:13:34.942Z,20.00
2022-09-11T20:16:12.359Z,20.00
2022-09-11T20:18:39.210Z,20.00
2022-09-11T20:21:09.576Z,20.00
2022-09-11T20:23:36.556Z,20.00
2022-09-11T20:26:13.689Z,19.90
2022-09-11T20:28:44.224Z,19.90
2022-09-11T20:31:22.770Z,19.90
2022-09-11T20:33:50.121Z,19.80
2022-09-11T20:36:18.230Z,19.80
2022-09-11T20:38:50.423Z,19.80
2022-09-11T20:41:17.199Z,19.70
2022-09-11T20:43:44.098Z,19.70
2022-09-11T20:46:10.995Z,19.70
2022-09-11T20:48:38.207Z,19.70
2022-09-11T20:51:07.951Z,19.70
2022-09-11T20:53:35.743Z,19.60
2022-09-11T20:56:04.799Z,19.60
2022-09-11T20:58:31.707Z,19.60
2022-09-11T21:01:00.525Z,19.60
2022-09-11T21:03:28.415Z,19.50
2022-09-11T21:05:56.317Z,19.50
2022-09-11T21:08:25.500Z,19.50
2022-09-11T21:10:52.593Z,19.40
2022-09-11T21:13:19.640Z,19.40
2022-09-11T21:15:48.325Z,19.40
2022-09-11T21:18:15.504Z,19.40
2022-09-11T21:20:42.280Z,19.30
2022-09-11T21:23:09.000Z,19.30
2022-09-11T21:25:40.255Z,19.30
2022-09-11T21:28:07.064Z,19.30
2022-09-11T21:30:33.762Z,19.20
2022-09-11T21:33:00.509Z,19.20
2022-09-11T21:35:27.292Z,19.20
2022-09-11T21:37:53.999Z,19.20
2022-09-11T21:40:20.905Z,19.10
2022-09-11T21:42:47.747Z,19.10
2022-09-11T21:45:14.683Z,19.10
2022-09-11T21:47:41.461Z,19.10
2022-09-11T21:50:08.644Z,19.10
2022-09-11T21:52:35.315Z,19.00
2022-09-11T21:55:02.104Z,19.00
2022-09-11T21:57:29.757Z,19.00
2022-09-11T21:59:57.073Z,19.00
2022-09-11T22:02:25.210Z,19.00
2022-09-11T22:04:53.243Z,18.90
2022-09-11T22:07:20.410Z,18.90
2022-09-11T22:09:48.387Z,18.80
2022-09-11T22:12:15.789Z,18.80
2022-09-11T22:14:44.396Z,18.80
2022-09-11T22:17:11.909Z,18.80
2022-09-11T22:19:38.657Z,18.70
2022-09-11T22:22:06.723Z,18.70
2022-09-11T22:24:33.481Z,18.70
2022-09-11T22:27:01.867Z,18.70
2022-09-11T22:29:28.615Z,18.60
2022-09-11T22:31:55.526Z,18.60
2022-09-11T22:34:23.374Z,18.60
2022-09-11T22:36:50.264Z,18.60
2022-09-11T22:39:17.003Z,18.50
2022-09-11T22:41:43.668Z,18.50
2022-09-11T22:44:11.529Z,18.50
2022-09-11T22:46:38.308Z,18.50
2022-09-11T22:49:05.100Z,18.50
2022-09-11T22:51:32.767Z,18.40
2022-09-11T22:53:59.502Z,18.40
2022-09-11T22:56:26.376Z,18.40
2022-09-11T22:58:53.744Z,18.40
2022-09-11T23:01:22.835Z,18.30
2022-09-11T23:03:51.025Z,18.30
2022-09-11T23:06:48.034Z,18.30
2022-09-11T23:09:18.829Z,18.30
2022-09-11T23:11:46.303Z,18.20
2022-09-11T23:14:14.852Z,18.20
2022-09-11T23:16:42.681Z,18.10
2022-09-11T23:19:23.298Z,18.10
2022-09-11T23:21:51.629Z,18.20
2022-09-11T23:24:18.349Z,18.10
2022-09-11T23:26:45.686Z,18.10
2022-09-11T23:29:12.838Z,18.10
2022-09-11T23:31:44.864Z,18.10
2022-09-11T23:34:15.557Z,18.10
2022-09-11T23:36:43.043Z,18.10
2022-09-11T23:39:10.213Z,18.00
2022-09-11T23:41:43.199Z,18.00
2022-09-11T23:44:13.721Z,18.00
2022-09-11T23:46:40.552Z,18.00
2022-09-11T23:49:07.289Z,18.00
2022-09-11T23:51:34.836Z,18.00
2022-09-11T23:54:01.476Z,18.00
2022-09-11T23:56:28.402Z,17.90
2022-09-11T23:58:55.058Z,17.90
